Austin, TX

2:44 PM CST on November 21, 2014 (GMT -0600)
Georgetown Municipal | Change Station
CLOSE
Current Station
Airport
Location: Georgetown,
Elevation: 787 ft
Nearby Weather Stations

Elev 787 ft 30.68 °N, 97.68 °W | Updated 54 minutes ago

Overcast
Overcast
72 °F
Feels Like 72 °F
N
6
Wind Variable Wind from SSE

Today
High -- | Low -- °F
--% Chance of Precip.
Yesterday
High -- | Low -- °F
Precip. -- in
7:01 AM 5:31 PM
Waning Crescent, 1% visible
Pressure 30.02 in
Visibility 10.0 miles
Clouds Scattered Clouds 2000 ft
Mostly Cloudy 2700 ft
Overcast 5000 ft
Dew Point 64 °F
Humidity 78%
Rainfall 0.00 in
Snow Depth Not available.
UV 1 out of 12
Pollen 3.20 out of 12
Air Quality Not available.
Flu Activity Not available.
METAR KGTU 211950Z 16005KT 10SM SCT020 BKN027 OVC050 22/18 A3002

More Conditions Fewer Conditions

Pressure 30.02 in
Visibility 10.0 miles
Clouds Scattered Clouds 2000 ft
Mostly Cloudy 2700 ft
Overcast 5000 ft
Dew Point 64 °F
Humidity 78%
Rainfall 0.00 in
Snow Depth Not available.
UV 1 out of 12
Pollen 3.20 out of 12
Air Quality Not available.
Flu Activity Not available.
METAR KGTU 211950Z 16005KT 10SM SCT020 BKN027 OVC050 22/18 A3002

More Conditions Fewer Conditions

Nowcast | as of 12:17 PM CST on November 21, 2014

Through 4 PM CST...scattered showers and isolated thunderstorms will be possible across areas generally east of Highway 281. Spotty afternoon rainfall amounts of around 1/2 inch are possible over the coastal prairies...with most areas expected to see between a trace and a few hundredths of an inch.

×

10-Day Weather Forecast

Almanac

Astronomy

Nov. 21, 2014 Rise Set
Actual Time
Civil Twilight
Nautical Twilight
Astronomical Twilight
Moon
Length of Visible Light
Length of Day
Tomorrow will be .
, % of the Moon is Illuminated

Today's Extremes

State Highs State Lows

Community

WunderPhotos

Upload Photos

1,772,713 photos uploaded!

WunderBlogs® & News

Nearby

Air Quality

  Air Quality AQ Index Pollutant
Not available.

Snow Depth

Station Depth Elevation

Earthquake Activity

City Distance Mag. Time & Date
Minimum magnitude displayed is 2.5.

Coastal Water Temperatures

Place Temperature

Nearby Weather Stations